createdAt,value
2022-10-19T00:00:47.008Z,1028.74
2022-10-19T00:00:52.162Z,1028.73
2022-10-19T00:01:52.173Z,1028.73
2022-10-19T00:02:52.148Z,1028.76
2022-10-19T00:03:52.107Z,1028.75
2022-10-19T00:04:52.079Z,1028.79
2022-10-19T00:05:52.052Z,1028.77
2022-10-19T00:06:52.059Z,1028.77
2022-10-19T00:07:52.025Z,1028.81
2022-10-19T00:08:52.073Z,1028.78
2022-10-19T00:09:52.033Z,1028.75
2022-10-19T00:10:52.007Z,1028.74
2022-10-19T00:11:51.975Z,1028.74
2022-10-19T00:12:51.982Z,1028.77
2022-10-19T00:13:51.953Z,1028.79
2022-10-19T00:14:51.983Z,1028.77
2022-10-19T00:15:51.920Z,1028.79
2022-10-19T00:16:51.923Z,1028.77
2022-10-19T00:17:51.891Z,1028.72
2022-10-19T00:18:51.929Z,1028.73
2022-10-19T00:19:51.863Z,1028.70
2022-10-19T00:20:51.905Z,1028.68
2022-10-19T00:21:51.863Z,1028.70
2022-10-19T00:22:51.840Z,1028.71
2022-10-19T00:23:51.819Z,1028.70
2022-10-19T00:24:51.828Z,1028.71
2022-10-19T00:25:51.776Z,1028.69
2022-10-19T00:26:51.833Z,1028.68
2022-10-19T00:27:51.788Z,1028.72
2022-10-19T00:28:51.799Z,1028.67
2022-10-19T00:29:51.729Z,1028.70
2022-10-19T00:30:51.757Z,1028.68
2022-10-19T00:31:51.698Z,1028.67
2022-10-19T00:32:51.747Z,1028.67
2022-10-19T00:33:51.687Z,1028.68
2022-10-19T00:34:51.684Z,1028.68
2022-10-19T00:35:51.659Z,1028.67
2022-10-19T00:36:51.675Z,1028.66
2022-10-19T00:37:51.620Z,1028.66
2022-10-19T00:38:51.666Z,1028.65
2022-10-19T00:40:51.606Z,1028.61
2022-10-19T00:41:51.567Z,1028.58
2022-10-19T00:42:51.586Z,1028.59
2022-10-19T00:43:51.554Z,1028.61
2022-10-19T00:44:51.586Z,1028.61
2022-10-19T00:45:51.511Z,1028.60
2022-10-19T00:46:51.525Z,1028.62
2022-10-19T00:47:51.502Z,1028.67
2022-10-19T00:48:51.489Z,1028.69
2022-10-19T00:49:51.722Z,1028.67
2022-10-19T00:50:51.510Z,1028.67
2022-10-19T00:51:51.443Z,1028.67
2022-10-19T00:52:51.437Z,1028.70
2022-10-19T00:53:51.417Z,1028.72
2022-10-19T00:54:51.413Z,1028.71
2022-10-19T00:55:51.407Z,1028.66
2022-10-19T00:56:51.429Z,1028.70
2022-10-19T00:58:51.405Z,1028.66
2022-10-19T00:59:51.330Z,1028.64
2022-10-19T01:00:51.343Z,1028.65
2022-10-19T01:01:51.312Z,1028.66
2022-10-19T01:02:51.363Z,1028.64
2022-10-19T01:03:51.288Z,1028.61
2022-10-19T01:04:51.283Z,1028.67
2022-10-19T01:05:51.256Z,1028.62
2022-10-19T01:07:51.242Z,1028.64
2022-10-19T01:08:51.248Z,1028.62
2022-10-19T01:09:51.222Z,1028.62
2022-10-19T01:10:51.183Z,1028.66
2022-10-19T01:11:51.188Z,1028.67
2022-10-19T01:12:51.159Z,1028.67
2022-10-19T01:13:51.160Z,1028.69
2022-10-19T01:14:51.168Z,1028.67
2022-10-19T01:15:51.133Z,1028.69
2022-10-19T01:16:51.101Z,1028.66
2022-10-19T01:17:51.132Z,1028.66
2022-10-19T01:18:51.080Z,1028.63
2022-10-19T01:19:51.090Z,1028.67
2022-10-19T01:20:51.130Z,1028.66
2022-10-19T01:21:51.055Z,1028.62
2022-10-19T01:22:51.051Z,1028.60
2022-10-19T01:23:51.113Z,1028.61
2022-10-19T01:24:51.058Z,1028.56
2022-10-19T01:25:50.988Z,1028.54
2022-10-19T01:26:51.072Z,1028.55
2022-10-19T01:27:50.970Z,1028.49
2022-10-19T01:28:51.031Z,1028.47
2022-10-19T01:29:50.957Z,1028.49
2022-10-19T01:30:50.926Z,1028.43
2022-10-19T01:31:50.917Z,1028.45
2022-10-19T01:32:50.944Z,1028.40
2022-10-19T01:33:50.972Z,1028.50
2022-10-19T01:34:50.864Z,1028.41
2022-10-19T01:35:50.881Z,1028.42
2022-10-19T01:36:50.840Z,1028.44
2022-10-19T01:37:50.845Z,1028.45
2022-10-19T01:38:50.858Z,1028.44
2022-10-19T01:39:50.814Z,1028.42
2022-10-19T01:40:50.800Z,1028.48
2022-10-19T01:41:50.814Z,1028.43
2022-10-19T01:42:50.811Z,1028.50
2022-10-19T01:43:50.754Z,1028.50
2022-10-19T01:44:50.802Z,1028.49
2022-10-19T01:45:50.726Z,1028.43
2022-10-19T01:46:50.718Z,1028.44
2022-10-19T01:47:50.726Z,1028.44
2022-10-19T01:48:50.682Z,1028.39
2022-10-19T01:49:50.687Z,1028.38
2022-10-19T01:50:50.983Z,1028.31
2022-10-19T01:51:50.683Z,1028.32
2022-10-19T01:52:50.621Z,1028.31
2022-10-19T01:53:50.635Z,1028.28
2022-10-19T01:54:50.605Z,1028.21
2022-10-19T01:55:50.597Z,1028.23
2022-10-19T01:56:50.615Z,1028.26
2022-10-19T01:57:50.566Z,1028.25
2022-10-19T01:58:50.535Z,1028.22
2022-10-19T01:59:50.556Z,1028.20
2022-10-19T02:00:50.689Z,1028.22
2022-10-19T02:01:50.514Z,1028.14
2022-10-19T02:02:50.539Z,1028.18
2022-10-19T02:03:50.540Z,1028.18
2022-10-19T02:04:50.463Z,1028.14
2022-10-19T02:05:50.469Z,1028.13
2022-10-19T02:06:50.455Z,1028.12
2022-10-19T02:07:50.481Z,1028.13
2022-10-19T02:08:50.481Z,1028.08
2022-10-19T02:09:50.420Z,1028.06
2022-10-19T02:10:50.393Z,1028.05
2022-10-19T02:11:51.344Z,1028.02
2022-10-19T02:12:50.366Z,1028.01
2022-10-19T02:13:50.361Z,1028.01
2022-10-19T02:14:50.384Z,1028.03
2022-10-19T02:15:50.329Z,1028.04
2022-10-19T02:16:50.301Z,1028.03
2022-10-19T02:17:50.299Z,1028.03
2022-10-19T02:18:50.307Z,1028.01
2022-10-19T02:19:50.275Z,1028.01
2022-10-19T02:20:50.291Z,1028.03
2022-10-19T02:21:50.259Z,1028.02
2022-10-19T02:22:50.221Z,1028.04
2022-10-19T02:23:51.933Z,1028.01
2022-10-19T02:24:50.233Z,1027.97
2022-10-19T02:25:50.196Z,1028.01
2022-10-19T02:26:50.283Z,1028.00
2022-10-19T02:27:50.188Z,1028.03
2022-10-19T02:28:50.227Z,1027.99
2022-10-19T02:29:50.191Z,1028.01
2022-10-19T02:30:50.166Z,1027.99
2022-10-19T02:31:50.121Z,1027.94
2022-10-19T02:32:50.132Z,1027.99
2022-10-19T02:33:50.108Z,1027.98
2022-10-19T02:34:50.064Z,1027.93
2022-10-19T02:35:50.075Z,1027.93
2022-10-19T02:36:50.068Z,1027.91
2022-10-19T02:37:50.043Z,1027.93
2022-10-19T02:38:50.059Z,1027.88
2022-10-19T02:39:50.101Z,1027.83
2022-10-19T02:40:49.983Z,1027.83
2022-10-19T02:41:49.981Z,1027.84
2022-10-19T02:42:49.966Z,1027.83
2022-10-19T02:43:49.956Z,1027.78
2022-10-19T02:44:49.973Z,1027.77
2022-10-19T02:45:49.948Z,1027.76
2022-10-19T02:46:49.897Z,1027.68
2022-10-19T02:47:49.899Z,1027.65
2022-10-19T02:48:49.887Z,1027.64
2022-10-19T02:49:49.892Z,1027.63
2022-10-19T02:50:49.889Z,1027.59
2022-10-19T02:51:49.869Z,1027.60
2022-10-19T02:52:49.826Z,1027.57
2022-10-19T02:53:49.828Z,1027.56
2022-10-19T02:54:49.813Z,1027.52
2022-10-19T02:55:49.797Z,1027.54
2022-10-19T02:56:49.819Z,1027.53
2022-10-19T02:57:49.798Z,1027.45
2022-10-19T02:58:49.734Z,1027.51
2022-10-19T02:59:49.761Z,1027.45
2022-10-19T03:00:49.870Z,1027.46
2022-10-19T03:01:49.721Z,1027.48
2022-10-19T03:02:49.725Z,1027.45
2022-10-19T03:03:49.727Z,1027.46
2022-10-19T03:04:49.668Z,1027.45
2022-10-19T03:05:49.692Z,1027.43
2022-10-19T03:06:49.713Z,1027.42
2022-10-19T03:07:49.641Z,1027.46
2022-10-19T03:08:49.695Z,1027.46
2022-10-19T03:09:49.613Z,1027.46
2022-10-19T03:10:49.580Z,1027.48
2022-10-19T03:11:49.582Z,1027.48
2022-10-19T03:12:49.575Z,1027.43
2022-10-19T03:13:49.562Z,1027.46
2022-10-19T03:14:49.577Z,1027.44
2022-10-19T03:15:49.555Z,1027.40
2022-10-19T03:16:49.517Z,1027.41
2022-10-19T03:17:49.519Z,1027.43
2022-10-19T03:18:49.481Z,1027.42
2022-10-19T03:19:49.485Z,1027.45
2022-10-19T03:20:49.488Z,1027.40
2022-10-19T03:21:49.470Z,1027.46
2022-10-19T03:22:49.491Z,1027.45
2022-10-19T03:23:49.425Z,1027.42
2022-10-19T03:24:49.402Z,1027.39
2022-10-19T03:25:49.405Z,1027.39
2022-10-19T03:26:49.406Z,1027.39
2022-10-19T03:27:49.386Z,1027.36
2022-10-19T03:28:49.428Z,1027.39
2022-10-19T03:29:49.348Z,1027.39
2022-10-19T03:30:49.342Z,1027.35
2022-10-19T03:31:49.311Z,1027.35
2022-10-19T03:32:49.332Z,1027.38
2022-10-19T03:33:49.303Z,1027.34
2022-10-19T03:34:49.259Z,1027.33
2022-10-19T03:35:49.258Z,1027.33
2022-10-19T03:36:49.236Z,1027.33
2022-10-19T03:37:49.246Z,1027.29
2022-10-19T03:38:49.250Z,1027.35
2022-10-19T03:39:49.224Z,1027.38
2022-10-19T03:40:49.206Z,1027.32
2022-10-19T03:41:49.191Z,1027.41
2022-10-19T03:42:49.164Z,1027.43
2022-10-19T03:43:49.221Z,1027.40
2022-10-19T03:44:49.162Z,1027.45
2022-10-19T03:45:49.127Z,1027.45
2022-10-19T03:46:49.095Z,1027.44
2022-10-19T03:47:49.114Z,1027.49
2022-10-19T03:48:49.084Z,1027.43
2022-10-19T03:49:49.095Z,1027.45
2022-10-19T03:50:49.133Z,1027.46
2022-10-19T03:51:49.042Z,1027.46
2022-10-19T03:52:49.073Z,1027.44
2022-10-19T03:53:49.031Z,1027.44
2022-10-19T03:54:48.991Z,1027.45
2022-10-19T03:55:48.988Z,1027.45
2022-10-19T03:56:49.044Z,1027.45
2022-10-19T03:57:48.964Z,1027.42
2022-10-19T03:58:48.954Z,1027.45
2022-10-19T03:59:48.979Z,1027.49
2022-10-19T04:00:48.956Z,1027.48
2022-10-19T04:01:48.915Z,1027.48
2022-10-19T04:02:48.940Z,1027.50
2022-10-19T04:03:48.884Z,1027.42
2022-10-19T04:04:48.905Z,1027.42
2022-10-19T04:05:48.865Z,1027.40
2022-10-19T04:06:48.839Z,1027.37
2022-10-19T04:07:48.839Z,1027.39
2022-10-19T04:08:48.874Z,1027.43
2022-10-19T04:09:48.809Z,1027.40
2022-10-19T04:10:48.876Z,1027.37
2022-10-19T04:11:48.804Z,1027.37
2022-10-19T04:12:53.661Z,1027.38
2022-10-19T04:13:48.760Z,1027.41
2022-10-19T04:14:57.690Z,1027.43
2022-10-19T04:15:48.757Z,1027.38
2022-10-19T04:16:48.709Z,1027.42
2022-10-19T04:17:48.776Z,1027.38
2022-10-19T04:18:48.697Z,1027.47
2022-10-19T04:19:48.677Z,1027.39
2022-10-19T04:20:48.698Z,1027.42
2022-10-19T04:21:48.651Z,1027.42
2022-10-19T04:22:48.615Z,1027.45
2022-10-19T04:23:48.664Z,1027.43
2022-10-19T04:24:48.596Z,1027.41
2022-10-19T04:25:48.599Z,1027.41
2022-10-19T04:26:48.662Z,1027.37
2022-10-19T04:27:48.591Z,1027.44
2022-10-19T04:28:48.642Z,1027.41
2022-10-19T04:29:48.587Z,1027.38
2022-10-19T04:30:48.565Z,1027.46
2022-10-19T04:31:48.517Z,1027.45
2022-10-19T04:32:48.580Z,1027.49
2022-10-19T04:33:48.487Z,1027.48
2022-10-19T04:34:48.483Z,1027.48
2022-10-19T04:35:48.499Z,1027.51
2022-10-19T04:36:48.522Z,1027.49
2022-10-19T04:37:48.451Z,1027.44
2022-10-19T04:38:48.467Z,1027.51
2022-10-19T04:39:48.457Z,1027.45
2022-10-19T04:40:48.441Z,1027.41
2022-10-19T04:41:48.417Z,1027.44
2022-10-19T04:42:48.439Z,1027.43
2022-10-19T04:43:48.382Z,1027.47
2022-10-19T04:44:48.384Z,1027.53
2022-10-19T04:45:48.333Z,1027.48
2022-10-19T04:46:48.315Z,1027.44
2022-10-19T04:47:48.318Z,1027.47
2022-10-19T04:48:48.307Z,1027.51
2022-10-19T04:49:48.296Z,1027.48
2022-10-19T04:50:48.352Z,1027.48
2022-10-19T04:51:48.271Z,1027.49
2022-10-19T04:52:48.274Z,1027.48
2022-10-19T04:53:48.253Z,1027.50
2022-10-19T04:54:48.186Z,1027.47
2022-10-19T04:55:48.197Z,1027.50
2022-10-19T04:56:48.271Z,1027.47
2022-10-19T04:57:48.188Z,1027.48
2022-10-19T04:58:48.161Z,1027.41
2022-10-19T04:59:48.187Z,1027.41
2022-10-19T05:00:48.197Z,1027.37
2022-10-19T05:01:48.116Z,1027.46
2022-10-19T05:02:48.135Z,1027.43
2022-10-19T05:03:48.159Z,1027.44
2022-10-19T05:04:48.079Z,1027.43
2022-10-19T05:05:48.147Z,1027.42
2022-10-19T05:06:48.094Z,1027.42
2022-10-19T05:07:48.039Z,1027.39
2022-10-19T05:08:48.105Z,1027.36
2022-10-19T05:09:48.003Z,1027.38
2022-10-19T05:10:47.978Z,1027.37
2022-10-19T05:11:47.999Z,1027.34
2022-10-19T05:12:47.973Z,1027.34
2022-10-19T05:13:47.970Z,1027.30
2022-10-19T05:14:47.963Z,1027.35
2022-10-19T05:15:47.923Z,1027.30
2022-10-19T05:16:47.927Z,1027.30
2022-10-19T05:17:47.876Z,1027.28
2022-10-19T05:18:47.922Z,1027.31
2022-10-19T05:19:47.896Z,1027.29
2022-10-19T05:20:47.919Z,1027.26
2022-10-19T05:21:47.878Z,1027.25
2022-10-19T05:22:47.836Z,1027.28
2022-10-19T05:23:47.812Z,1027.33
2022-10-19T05:24:47.809Z,1027.27
2022-10-19T05:25:47.823Z,1027.29
2022-10-19T05:26:47.792Z,1027.25
2022-10-19T05:27:47.806Z,1027.28
2022-10-19T05:28:47.829Z,1027.25
2022-10-19T05:29:47.692Z,1027.26
2022-10-19T05:30:49.028Z,1027.27
2022-10-19T05:31:47.710Z,1027.24
2022-10-19T05:32:47.711Z,1027.29
2022-10-19T05:33:47.623Z,1027.23
2022-10-19T05:34:47.680Z,1027.22
2022-10-19T05:35:47.615Z,1027.22
2022-10-19T05:36:47.694Z,1027.18
2022-10-19T05:37:47.616Z,1027.13
2022-10-19T05:38:47.589Z,1027.13
2022-10-19T05:39:47.569Z,1027.09
2022-10-19T05:40:51.533Z,1027.10
2022-10-19T05:41:47.572Z,1027.09
2022-10-19T05:42:47.554Z,1027.17
2022-10-19T05:43:47.497Z,1027.20
2022-10-19T05:44:47.523Z,1027.18
2022-10-19T05:45:47.481Z,1027.16
2022-10-19T05:46:47.458Z,1027.17
2022-10-19T05:47:47.472Z,1027.15
2022-10-19T05:48:47.451Z,1027.12
2022-10-19T05:49:47.422Z,1027.12
2022-10-19T05:50:47.436Z,1027.05
2022-10-19T05:51:47.387Z,1027.07
2022-10-19T05:52:47.368Z,1027.02
2022-10-19T05:53:47.403Z,1027.02
2022-10-19T05:54:47.355Z,1027.00
2022-10-19T05:55:47.353Z,1027.08
2022-10-19T05:56:47.332Z,1027.11
2022-10-19T05:57:47.297Z,1027.04
2022-10-19T05:58:47.378Z,1027.09
2022-10-19T05:59:47.305Z,1027.12
2022-10-19T06:00:47.316Z,1027.08
2022-10-19T06:01:47.390Z,1027.01
2022-10-19T06:02:47.280Z,1027.01
2022-10-19T06:03:47.260Z,1026.95
2022-10-19T06:04:47.328Z,1026.98
2022-10-19T06:05:47.242Z,1026.99
2022-10-19T06:06:47.251Z,1027.02
2022-10-19T06:07:47.165Z,1027.02
2022-10-19T06:08:47.161Z,1027.02
2022-10-19T06:09:47.145Z,1027.00
2022-10-19T06:10:47.197Z,1027.05
2022-10-19T06:11:47.115Z,1027.01
2022-10-19T06:12:47.129Z,1027.02
2022-10-19T06:13:47.081Z,1027.01
2022-10-19T06:15:47.071Z,1027.00
2022-10-19T06:16:47.102Z,1027.02
2022-10-19T06:17:47.088Z,1027.03
2022-10-19T06:18:47.088Z,1027.05
2022-10-19T06:19:47.053Z,1027.06
2022-10-19T06:20:47.041Z,1027.07
2022-10-19T06:21:46.969Z,1027.07
2022-10-19T06:22:47.078Z,1027.04
2022-10-19T06:23:46.977Z,1027.01
2022-10-19T06:24:46.976Z,1027.05
2022-10-19T06:25:46.977Z,1026.99
2022-10-19T06:26:46.932Z,1027.06
2022-10-19T06:27:46.928Z,1027.04
2022-10-19T06:28:47.015Z,1027.04
2022-10-19T06:29:46.901Z,1026.99
2022-10-19T06:30:46.952Z,1027.04
2022-10-19T06:31:46.875Z,1026.97
2022-10-19T06:32:46.924Z,1026.96
2022-10-19T06:33:49.226Z,1027.00
2022-10-19T06:34:46.897Z,1026.98
2022-10-19T06:35:46.795Z,1027.01
2022-10-19T06:36:46.787Z,1027.00
2022-10-19T06:37:46.783Z,1026.99
2022-10-19T06:38:46.797Z,1026.95
2022-10-19T06:39:46.793Z,1027.01
2022-10-19T06:40:46.828Z,1026.98
2022-10-19T06:41:46.731Z,1026.99
2022-10-19T06:42:46.719Z,1027.00
2022-10-19T06:43:46.692Z,1026.95
2022-10-19T06:44:46.709Z,1026.96
2022-10-19T06:45:46.723Z,1026.93
2022-10-19T06:46:46.716Z,1026.99
2022-10-19T06:48:46.639Z,1026.95
2022-10-19T06:49:46.616Z,1026.91
2022-10-19T06:50:46.679Z,1026.97
2022-10-19T06:51:46.579Z,1026.93
2022-10-19T06:52:46.617Z,1026.97
2022-10-19T06:53:46.607Z,1026.96
2022-10-19T06:54:46.561Z,1026.96
2022-10-19T06:55:46.535Z,1026.98
2022-10-19T06:56:46.627Z,1027.01
2022-10-19T06:57:46.492Z,1026.99
2022-10-19T06:58:46.542Z,1027.03
2022-10-19T06:59:49.036Z,1027.05
2022-10-19T07:00:46.524Z,1027.00
2022-10-19T07:01:46.472Z,1027.05
2022-10-19T07:02:46.499Z,1027.05
2022-10-19T07:03:46.418Z,1027.08
2022-10-19T07:04:46.464Z,1027.07
2022-10-19T07:05:46.439Z,1027.10
2022-10-19T07:06:46.408Z,1027.13
2022-10-19T07:07:46.557Z,1027.12
2022-10-19T07:08:46.357Z,1027.14
2022-10-19T07:09:46.340Z,1027.14
2022-10-19T07:10:46.443Z,1027.12
2022-10-19T07:11:46.422Z,1027.12
2022-10-19T07:12:46.352Z,1027.18
2022-10-19T07:13:46.344Z,1027.17
2022-10-19T07:14:46.308Z,1027.18
2022-10-19T07:15:46.254Z,1027.13
2022-10-19T07:16:46.290Z,1027.19
2022-10-19T07:17:46.232Z,1027.15
2022-10-19T07:18:46.239Z,1027.17
2022-10-19T07:19:46.253Z,1027.14
2022-10-19T07:20:46.242Z,1027.17
2022-10-19T07:21:46.198Z,1027.19
2022-10-19T07:22:46.242Z,1027.16
2022-10-19T07:23:46.168Z,1027.18
2022-10-19T07:24:46.163Z,1027.16
2022-10-19T07:25:46.174Z,1027.16
2022-10-19T07:26:46.167Z,1027.14
2022-10-19T07:27:46.122Z,1027.18
2022-10-19T07:28:46.231Z,1027.19
2022-10-19T07:29:46.134Z,1027.16
2022-10-19T07:30:46.109Z,1027.16
2022-10-19T07:31:46.109Z,1027.20
2022-10-19T07:32:47.186Z,1027.14
2022-10-19T07:33:46.053Z,1027.10
2022-10-19T07:34:46.091Z,1027.18
2022-10-19T07:35:45.985Z,1027.15
2022-10-19T07:36:46.037Z,1027.13
2022-10-19T07:37:45.971Z,1027.13
2022-10-19T07:38:46.006Z,1027.13
2022-10-19T07:39:45.945Z,1027.19
2022-10-19T07:40:47.459Z,1027.08
2022-10-19T07:41:45.917Z,1027.10
2022-10-19T07:42:45.972Z,1027.06
2022-10-19T07:43:45.924Z,1027.10
2022-10-19T07:44:45.874Z,1027.10
2022-10-19T07:45:45.879Z,1027.15
2022-10-19T07:46:45.989Z,1027.09
2022-10-19T07:47:45.840Z,1027.07
2022-10-19T07:48:45.853Z,1027.09
2022-10-19T07:49:45.798Z,1027.05
2022-10-19T07:50:45.821Z,1027.07
2022-10-19T07:51:45.850Z,1027.10
2022-10-19T07:53:56.513Z,1027.09
2022-10-19T07:54:57.410Z,1027.09
2022-10-19T07:55:57.432Z,1027.09
2022-10-19T07:56:57.392Z,1027.10
2022-10-19T07:57:57.396Z,1027.14
2022-10-19T07:58:57.448Z,1027.11
2022-10-19T07:59:57.379Z,1027.12
2022-10-19T08:00:57.334Z,1027.11
2022-10-19T08:01:57.406Z,1027.13
2022-10-19T08:03:31.167Z,1027.13
2022-10-19T08:04:48.730Z,1027.10
2022-10-19T08:05:03.109Z,1027.13
2022-10-19T08:05:57.361Z,1027.14
2022-10-19T08:06:57.264Z,1027.11
2022-10-19T08:07:57.290Z,1027.11
2022-10-19T08:08:57.326Z,1027.10
2022-10-19T08:09:57.315Z,1027.12
2022-10-19T08:10:57.243Z,1027.07
2022-10-19T08:11:57.232Z,1027.08
2022-10-19T08:12:57.190Z,1027.09
2022-10-19T08:13:57.194Z,1027.09
2022-10-19T08:14:57.151Z,1027.11
2022-10-19T08:15:57.142Z,1027.07
2022-10-19T08:16:57.166Z,1027.03
2022-10-19T08:17:57.135Z,1027.02
2022-10-19T08:18:57.124Z,1026.99
2022-10-19T08:19:57.118Z,1026.98
2022-10-19T08:20:57.068Z,1026.97
2022-10-19T08:21:57.089Z,1026.96
2022-10-19T08:22:59.008Z,1026.98
2022-10-19T08:23:57.056Z,1026.96
2022-10-19T08:24:57.030Z,1026.91
2022-10-19T08:25:57.019Z,1026.93
2022-10-19T08:26:56.996Z,1026.91
2022-10-19T08:27:57.017Z,1026.94
2022-10-19T08:28:56.996Z,1026.88
2022-10-19T08:29:57.022Z,1026.87
2022-10-19T08:30:56.952Z,1026.87
2022-10-19T08:31:56.958Z,1026.86
2022-10-19T08:32:56.918Z,1026.84
2022-10-19T08:33:56.938Z,1026.84
2022-10-19T08:34:56.934Z,1026.87
2022-10-19T08:35:56.886Z,1026.80
2022-10-19T08:36:56.861Z,1026.93
2022-10-19T08:37:58.670Z,1026.90
2022-10-19T08:38:56.848Z,1026.90
2022-10-19T08:39:56.878Z,1026.90
2022-10-19T08:40:56.802Z,1026.88
2022-10-19T08:41:56.811Z,1026.88
2022-10-19T08:42:56.791Z,1026.84
2022-10-19T08:43:56.770Z,1026.92
2022-10-19T08:44:56.803Z,1026.81
2022-10-19T08:45:56.753Z,1026.75
2022-10-19T08:46:56.735Z,1026.77
2022-10-19T08:47:56.722Z,1026.78
2022-10-19T08:48:56.688Z,1026.81
2022-10-19T08:49:56.693Z,1026.82
2022-10-19T08:50:56.718Z,1026.78
2022-10-19T08:51:56.698Z,1026.71
2022-10-19T08:52:56.645Z,1026.79
2022-10-19T08:53:56.653Z,1026.68
2022-10-19T08:54:56.619Z,1026.71
2022-10-19T08:55:58.651Z,1026.73
2022-10-19T08:56:56.606Z,1026.70
2022-10-19T08:57:56.586Z,1026.69
2022-10-19T08:58:56.571Z,1026.66
2022-10-19T08:59:56.569Z,1026.66
2022-10-19T09:00:56.564Z,1026.61
2022-10-19T09:01:56.603Z,1026.63
2022-10-19T09:02:56.525Z,1026.66
2022-10-19T09:03:56.827Z,1026.57
2022-10-19T09:04:56.485Z,1026.59
2022-10-19T09:05:56.480Z,1026.60
2022-10-19T09:06:56.566Z,1026.60
2022-10-19T09:07:56.470Z,1026.61
2022-10-19T09:08:56.471Z,1026.59
2022-10-19T09:09:56.429Z,1026.58
2022-10-19T09:10:56.427Z,1026.58
2022-10-19T09:11:56.413Z,1026.55
2022-10-19T09:12:58.474Z,1026.57
2022-10-19T09:14:06.142Z,1026.53
2022-10-19T09:14:56.351Z,1026.55
2022-10-19T09:15:56.378Z,1026.56
2022-10-19T09:16:56.329Z,1026.57
2022-10-19T09:17:56.356Z,1026.60
2022-10-19T09:18:56.351Z,1026.61
2022-10-19T09:19:56.295Z,1026.56
2022-10-19T09:20:56.279Z,1026.50
2022-10-19T09:21:56.294Z,1026.49
2022-10-19T09:22:56.319Z,1026.52
2022-10-19T09:23:56.276Z,1026.51
2022-10-19T09:24:56.293Z,1026.49
2022-10-19T09:25:56.209Z,1026.47
2022-10-19T09:26:56.214Z,1026.46
2022-10-19T09:27:56.207Z,1026.41
2022-10-19T09:28:56.228Z,1026.41
2022-10-19T09:29:56.176Z,1026.43
2022-10-19T09:30:56.139Z,1026.43
2022-10-19T09:31:56.138Z,1026.42
2022-10-19T09:32:56.156Z,1026.43
2022-10-19T09:33:56.130Z,1026.40
2022-10-19T09:34:56.115Z,1026.44
2022-10-19T09:35:56.091Z,1026.45
2022-10-19T09:36:56.073Z,1026.41
2022-10-19T09:37:56.066Z,1026.46
2022-10-19T09:38:56.040Z,1026.43
2022-10-19T09:39:56.302Z,1026.43
2022-10-19T09:40:56.005Z,1026.47
2022-10-19T09:41:56.013Z,1026.44
2022-10-19T09:42:55.990Z,1026.44
2022-10-19T09:43:56.010Z,1026.46
2022-10-19T09:44:55.944Z,1026.40
2022-10-19T09:45:55.984Z,1026.42
2022-10-19T09:46:55.927Z,1026.42
2022-10-19T09:47:58.998Z,1026.42
2022-10-19T09:48:55.912Z,1026.49
2022-10-19T09:49:55.900Z,1026.46
2022-10-19T09:50:55.943Z,1026.45
2022-10-19T09:51:55.881Z,1026.51
2022-10-19T09:52:55.932Z,1026.47
2022-10-19T09:53:55.865Z,1026.49
2022-10-19T09:54:55.843Z,1026.43
2022-10-19T09:55:55.969Z,1026.41
2022-10-19T09:56:55.842Z,1026.43
2022-10-19T09:57:55.794Z,1026.39
2022-10-19T09:58:55.800Z,1026.42
2022-10-19T09:59:55.795Z,1026.42
2022-10-19T10:00:55.791Z,1026.40
2022-10-19T10:01:55.831Z,1026.43
2022-10-19T10:02:55.829Z,1026.42
2022-10-19T10:03:56.053Z,1026.41
2022-10-19T10:04:55.686Z,1026.41
2022-10-19T10:05:55.715Z,1026.37
2022-10-19T10:06:55.701Z,1026.41
2022-10-19T10:07:55.669Z,1026.33
2022-10-19T10:08:55.700Z,1026.37
2022-10-19T10:09:55.643Z,1026.33
2022-10-19T10:10:55.662Z,1026.40
2022-10-19T10:12:55.572Z,1026.42
2022-10-19T10:13:55.607Z,1026.46
2022-10-19T10:14:55.589Z,1026.38
2022-10-19T10:15:55.550Z,1026.40
2022-10-19T10:16:55.593Z,1026.45
2022-10-19T10:17:55.576Z,1026.50
2022-10-19T10:18:55.503Z,1026.50
2022-10-19T10:19:55.507Z,1026.46
2022-10-19T10:21:55.482Z,1026.51
2022-10-19T10:22:55.535Z,1026.46
2022-10-19T10:23:55.456Z,1026.43
2022-10-19T10:24:55.464Z,1026.40
2022-10-19T10:25:55.457Z,1026.37
2022-10-19T10:26:55.481Z,1026.36
2022-10-19T10:27:55.434Z,1026.31
2022-10-19T10:28:57.884Z,1026.31
2022-10-19T10:30:55.392Z,1026.38
2022-10-19T10:31:55.418Z,1026.32
2022-10-19T10:32:55.380Z,1026.38
2022-10-19T10:33:55.584Z,1026.44
2022-10-19T10:34:58.369Z,1026.40
2022-10-19T10:35:55.338Z,1026.44
2022-10-19T10:36:55.291Z,1026.44
2022-10-19T10:37:55.286Z,1026.43
2022-10-19T10:38:55.362Z,1026.41
2022-10-19T10:39:56.794Z,1026.41
2022-10-19T10:40:55.221Z,1026.35
2022-10-19T10:41:55.200Z,1026.33
2022-10-19T10:42:55.306Z,1026.31
2022-10-19T10:43:56.683Z,1026.29
2022-10-19T10:44:55.222Z,1026.25
2022-10-19T10:45:55.139Z,1026.28
2022-10-19T10:46:55.148Z,1026.23
2022-10-19T10:47:55.148Z,1026.19
2022-10-19T10:48:55.174Z,1026.22
2022-10-19T10:49:55.124Z,1026.19
2022-10-19T10:50:55.133Z,1026.24
2022-10-19T10:51:55.053Z,1026.15
2022-10-19T10:52:55.059Z,1026.23
2022-10-19T10:53:55.036Z,1026.19
2022-10-19T10:54:55.054Z,1026.20
2022-10-19T10:55:55.021Z,1026.13
2022-10-19T10:56:55.104Z,1026.13
2022-10-19T10:57:55.023Z,1026.15
2022-10-19T10:58:55.014Z,1026.10
2022-10-19T10:59:54.949Z,1026.14
2022-10-19T11:00:54.996Z,1026.14
2022-10-19T11:01:55.020Z,1026.16
2022-10-19T11:02:54.966Z,1026.16
2022-10-19T11:03:54.915Z,1026.12
2022-10-19T11:04:54.935Z,1026.05
2022-10-19T11:05:54.899Z,1026.06
2022-10-19T11:06:54.879Z,1025.98
2022-10-19T11:07:54.850Z,1026.04
2022-10-19T11:08:54.983Z,1026.00
2022-10-19T11:09:54.836Z,1025.97
2022-10-19T11:10:54.825Z,1025.98
2022-10-19T11:11:54.835Z,1025.91
2022-10-19T11:12:54.791Z,1025.97
2022-10-19T11:13:54.756Z,1025.95
2022-10-19T11:14:54.855Z,1025.88
2022-10-19T11:15:54.764Z,1025.85
2022-10-19T11:16:54.743Z,1025.80
2022-10-19T11:17:54.756Z,1025.85
2022-10-19T11:18:54.711Z,1025.87
2022-10-19T11:19:54.688Z,1025.82
2022-10-19T11:20:54.732Z,1025.80
2022-10-19T11:21:54.689Z,1025.69
2022-10-19T11:22:54.684Z,1025.72
2022-10-19T11:23:54.635Z,1025.68
2022-10-19T11:24:54.702Z,1025.67
2022-10-19T11:25:54.638Z,1025.62
2022-10-19T11:26:54.709Z,1025.58
2022-10-19T11:27:54.595Z,1025.58
2022-10-19T11:28:54.600Z,1025.54
2022-10-19T11:29:54.557Z,1025.51
2022-10-19T11:30:54.554Z,1025.50
2022-10-19T11:31:54.533Z,1025.48
2022-10-19T11:32:54.568Z,1025.44
2022-10-19T11:33:54.495Z,1025.41
2022-10-19T11:34:54.521Z,1025.43
2022-10-19T11:35:54.488Z,1025.36
2022-10-19T11:36:54.471Z,1025.33
2022-10-19T11:38:17.536Z,1025.29
2022-10-19T11:38:54.530Z,1025.28
2022-10-19T11:39:54.419Z,1025.21
2022-10-19T11:41:54.405Z,1025.19
2022-10-19T11:42:54.394Z,1025.21
2022-10-19T11:43:54.388Z,1025.13
2022-10-19T11:44:54.416Z,1025.20
2022-10-19T11:45:54.378Z,1025.10
2022-10-19T11:46:54.419Z,1025.14
2022-10-19T11:47:54.318Z,1025.08
2022-10-19T11:48:54.913Z,1025.03
2022-10-19T11:49:54.299Z,1024.95
2022-10-19T11:50:58.609Z,1024.97
2022-10-19T11:51:54.296Z,1024.92
2022-10-19T11:52:54.278Z,1024.96
2022-10-19T11:53:54.240Z,1024.91
2022-10-19T11:54:54.278Z,1024.92
2022-10-19T11:55:54.222Z,1024.94
2022-10-19T11:57:11.734Z,1024.88
2022-10-19T11:57:54.184Z,1024.91
2022-10-19T11:58:54.188Z,1024.92
2022-10-19T11:59:57.574Z,1024.91
2022-10-19T12:00:54.160Z,1024.89
2022-10-19T12:01:54.225Z,1024.88
2022-10-19T12:02:54.240Z,1024.89
2022-10-19T12:03:54.109Z,1024.88
2022-10-19T12:04:54.129Z,1024.85
2022-10-19T12:05:54.146Z,1024.86
2022-10-19T12:06:54.076Z,1024.93
2022-10-19T12:07:54.085Z,1024.92
2022-10-19T12:08:56.172Z,1024.94
2022-10-19T12:09:54.079Z,1024.87
2022-10-19T12:10:54.065Z,1024.86
2022-10-19T12:11:54.011Z,1024.90
2022-10-19T12:12:54.078Z,1024.83
2022-10-19T12:13:54.004Z,1024.82
2022-10-19T12:14:54.074Z,1024.78